sensor_id;sensor_type;location;lat;lon;timestamp;P1;durP1;ratioP1;P2;durP2;ratioP2
31262;SDS011;17892;52.080;9.006;2023-02-28T00:00:32;0.95;;;0.50;;
31262;SDS011;17892;52.080;9.006;2023-02-28T00:02:59;1.65;;;0.50;;
31262;SDS011;17892;52.080;9.006;2023-02-28T00:05:25;1.77;;;0.60;;
31262;SDS011;17892;52.080;9.006;2023-02-28T00:07:52;1.83;;;0.75;;
31262;SDS011;17892;52.080;9.006;2023-02-28T00:10:20;1.73;;;0.60;;
31262;SDS011;17892;52.080;9.006;2023-02-28T00:12:52;1.80;;;0.50;;
31262;SDS011;17892;52.080;9.006;2023-02-28T00:17:48;1.05;;;0.38;;
31262;SDS011;17892;52.080;9.006;2023-02-28T00:20:13;1.38;;;0.50;;
31262;SDS011;17892;52.080;9.006;2023-02-28T00:22:41;2.03;;;0.80;;
31262;SDS011;17892;52.080;9.006;2023-02-28T00:25:09;1.05;;;0.50;;
31262;SDS011;17892;52.080;9.006;2023-02-28T00:27:38;1.67;;;0.50;;
31262;SDS011;17892;52.080;9.006;2023-02-28T00:30:05;1.30;;;0.52;;
31262;SDS011;17892;52.080;9.006;2023-02-28T00:32:33;1.77;;;0.60;;
31262;SDS011;17892;52.080;9.006;2023-02-28T00:34:59;0.90;;;0.40;;
31262;SDS011;17892;52.080;9.006;2023-02-28T00:37:25;1.45;;;0.63;;
31262;SDS011;17892;52.080;9.006;2023-02-28T00:39:52;1.83;;;0.57;;
31262;SDS011;17892;52.080;9.006;2023-02-28T00:42:18;1.85;;;0.52;;
31262;SDS011;17892;52.080;9.006;2023-02-28T00:44:44;1.70;;;0.65;;
31262;SDS011;17892;52.080;9.006;2023-02-28T00:47:09;1.92;;;0.60;;
31262;SDS011;17892;52.080;9.006;2023-02-28T00:49:35;1.42;;;0.63;;
31262;SDS011;17892;52.080;9.006;2023-02-28T00:52:01;2.45;;;0.80;;
31262;SDS011;17892;52.080;9.006;2023-02-28T00:54:27;1.38;;;0.47;;
31262;SDS011;17892;52.080;9.006;2023-02-28T00:56:53;1.58;;;0.60;;
31262;SDS011;17892;52.080;9.006;2023-02-28T00:59:18;1.70;;;0.63;;
31262;SDS011;17892;52.080;9.006;2023-02-28T01:01:45;2.05;;;0.50;;
31262;SDS011;17892;52.080;9.006;2023-02-28T01:04:11;1.30;;;0.52;;
31262;SDS011;17892;52.080;9.006;2023-02-28T01:06:37;3.08;;;0.80;;
31262;SDS011;17892;52.080;9.006;2023-02-28T01:09:04;1.20;;;0.52;;
31262;SDS011;17892;52.080;9.006;2023-02-28T01:11:31;1.80;;;0.80;;
31262;SDS011;17892;52.080;9.006;2023-02-28T01:13:57;1.67;;;0.60;;
31262;SDS011;17892;52.080;9.006;2023-02-28T01:16:23;2.15;;;0.63;;
31262;SDS011;17892;52.080;9.006;2023-02-28T01:18:49;1.88;;;0.60;;
31262;SDS011;17892;52.080;9.006;2023-02-28T01:21:16;1.67;;;0.57;;
31262;SDS011;17892;52.080;9.006;2023-02-28T01:23:44;1.95;;;0.70;;
31262;SDS011;17892;52.080;9.006;2023-02-28T01:26:11;3.00;;;1.17;;
31262;SDS011;17892;52.080;9.006;2023-02-28T01:28:41;3.42;;;1.08;;
31262;SDS011;17892;52.080;9.006;2023-02-28T01:31:07;2.47;;;1.02;;
31262;SDS011;17892;52.080;9.006;2023-02-28T01:33:34;3.10;;;0.90;;
31262;SDS011;17892;52.080;9.006;2023-02-28T01:36:04;1.77;;;0.60;;
31262;SDS011;17892;52.080;9.006;2023-02-28T01:38:37;2.10;;;0.80;;
31262;SDS011;17892;52.080;9.006;2023-02-28T01:41:03;2.05;;;0.75;;
31262;SDS011;17892;52.080;9.006;2023-02-28T01:43:52;1.90;;;0.77;;
31262;SDS011;17892;52.080;9.006;2023-02-28T01:46:21;2.50;;;0.65;;
31262;SDS011;17892;52.080;9.006;2023-02-28T01:49:05;2.33;;;0.88;;
31262;SDS011;17892;52.080;9.006;2023-02-28T01:51:44;1.42;;;0.60;;
31262;SDS011;17892;52.080;9.006;2023-02-28T01:57:13;1.73;;;0.77;;
31262;SDS011;17892;52.080;9.006;2023-02-28T01:59:44;1.65;;;0.50;;
31262;SDS011;17892;52.080;9.006;2023-02-28T02:02:15;4.53;;;1.02;;
31262;SDS011;17892;52.080;9.006;2023-02-28T02:04:54;2.03;;;0.68;;
31262;SDS011;17892;52.080;9.006;2023-02-28T02:07:29;2.85;;;0.68;;
31262;SDS011;17892;52.080;9.006;2023-02-28T02:18:46;1.35;;;0.55;;
31262;SDS011;17892;52.080;9.006;2023-02-28T02:27:46;2.00;;;0.73;;
31262;SDS011;17892;52.080;9.006;2023-02-28T02:36:30;1.20;;;0.50;;
31262;SDS011;17892;52.080;9.006;2023-02-28T02:39:02;0.98;;;0.43;;
31262;SDS011;17892;52.080;9.006;2023-02-28T02:41:49;2.15;;;0.68;;
31262;SDS011;17892;52.080;9.006;2023-02-28T02:47:12;1.20;;;0.60;;
31262;SDS011;17892;52.080;9.006;2023-02-28T02:49:49;1.17;;;0.47;;
31262;SDS011;17892;52.080;9.006;2023-02-28T02:54:48;1.65;;;0.50;;
31262;SDS011;17892;52.080;9.006;2023-02-28T02:57:29;1.58;;;0.60;;
31262;SDS011;17892;52.080;9.006;2023-02-28T03:00:03;1.35;;;0.50;;
31262;SDS011;17892;52.080;9.006;2023-02-28T03:02:33;1.67;;;0.60;;
31262;SDS011;17892;52.080;9.006;2023-02-28T03:05:07;1.50;;;0.50;;
31262;SDS011;17892;52.080;9.006;2023-02-28T03:07:42;0.57;;;0.22;;
31262;SDS011;17892;52.080;9.006;2023-02-28T03:13:00;1.02;;;0.30;;
31262;SDS011;17892;52.080;9.006;2023-02-28T03:15:50;1.08;;;0.32;;
31262;SDS011;17892;52.080;9.006;2023-02-28T03:20:59;1.55;;;0.45;;
31262;SDS011;17892;52.080;9.006;2023-02-28T03:23:48;0.55;;;0.20;;
31262;SDS011;17892;52.080;9.006;2023-02-28T03:26:36;1.38;;;0.40;;
31262;SDS011;17892;52.080;9.006;2023-02-28T03:29:12;2.55;;;0.40;;
31262;SDS011;17892;52.080;9.006;2023-02-28T03:32:28;1.02;;;0.47;;
31262;SDS011;17892;52.080;9.006;2023-02-28T03:34:39;1.95;;;0.50;;
31262;SDS011;17892;52.080;9.006;2023-02-28T03:37:18;1.42;;;0.40;;
31262;SDS011;17892;52.080;9.006;2023-02-28T03:39:49;1.33;;;0.40;;
31262;SDS011;17892;52.080;9.006;2023-02-28T03:42:33;1.90;;;0.40;;
31262;SDS011;17892;52.080;9.006;2023-02-28T03:45:05;0.47;;;0.17;;
31262;SDS011;17892;52.080;9.006;2023-02-28T03:47:47;0.98;;;0.30;;
31262;SDS011;17892;52.080;9.006;2023-02-28T03:50:19;1.15;;;0.50;;
31262;SDS011;17892;52.080;9.006;2023-02-28T03:53:01;1.25;;;0.30;;
31262;SDS011;17892;52.080;9.006;2023-02-28T03:55:39;0.98;;;0.30;;
31262;SDS011;17892;52.080;9.006;2023-02-28T04:01:04;0.73;;;0.30;;
31262;SDS011;17892;52.080;9.006;2023-02-28T04:03:36;1.27;;;0.40;;
31262;SDS011;17892;52.080;9.006;2023-02-28T04:06:04;0.73;;;0.40;;
31262;SDS011;17892;52.080;9.006;2023-02-28T04:08:32;0.82;;;0.20;;
31262;SDS011;17892;52.080;9.006;2023-02-28T04:11:03;1.08;;;0.40;;
31262;SDS011;17892;52.080;9.006;2023-02-28T04:13:43;0.65;;;0.30;;
31262;SDS011;17892;52.080;9.006;2023-02-28T04:16:09;1.73;;;0.50;;
31262;SDS011;17892;52.080;9.006;2023-02-28T04:18:38;0.70;;;0.30;;
31262;SDS011;17892;52.080;9.006;2023-02-28T04:21:04;0.98;;;0.40;;
31262;SDS011;17892;52.080;9.006;2023-02-28T04:23:31;1.08;;;0.40;;
31262;SDS011;17892;52.080;9.006;2023-02-28T04:25:57;1.30;;;0.40;;
31262;SDS011;17892;52.080;9.006;2023-02-28T04:28:23;0.45;;;0.20;;
31262;SDS011;17892;52.080;9.006;2023-02-28T04:31:22;1.40;;;0.52;;
31262;SDS011;17892;52.080;9.006;2023-02-28T04:33:41;0.60;;;0.30;;
31262;SDS011;17892;52.080;9.006;2023-02-28T04:36:07;1.65;;;0.40;;
31262;SDS011;17892;52.080;9.006;2023-02-28T04:38:35;0.98;;;0.35;;
31262;SDS011;17892;52.080;9.006;2023-02-28T04:41:03;0.38;;;0.30;;
31262;SDS011;17892;52.080;9.006;2023-02-28T04:43:29;1.05;;;0.45;;
31262;SDS011;17892;52.080;9.006;2023-02-28T04:45:56;1.00;;;0.30;;
31262;SDS011;17892;52.080;9.006;2023-02-28T04:48:27;1.45;;;0.40;;
31262;SDS011;17892;52.080;9.006;2023-02-28T04:50:54;1.08;;;0.30;;
31262;SDS011;17892;52.080;9.006;2023-02-28T04:53:20;1.05;;;0.40;;
31262;SDS011;17892;52.080;9.006;2023-02-28T04:55:46;0.60;;;0.20;;
31262;SDS011;17892;52.080;9.006;2023-02-28T04:58:12;1.70;;;0.50;;
31262;SDS011;17892;52.080;9.006;2023-02-28T05:00:39;1.30;;;0.40;;
31262;SDS011;17892;52.080;9.006;2023-02-28T05:03:05;0.57;;;0.25;;
31262;SDS011;17892;52.080;9.006;2023-02-28T05:05:31;0.85;;;0.30;;
31262;SDS011;17892;52.080;9.006;2023-02-28T05:07:56;0.77;;;0.40;;
31262;SDS011;17892;52.080;9.006;2023-02-28T05:10:22;0.47;;;0.25;;
31262;SDS011;17892;52.080;9.006;2023-02-28T05:12:48;0.73;;;0.30;;
31262;SDS011;17892;52.080;9.006;2023-02-28T05:15:15;0.93;;;0.40;;
31262;SDS011;17892;52.080;9.006;2023-02-28T05:17:41;1.33;;;0.15;;
31262;SDS011;17892;52.080;9.006;2023-02-28T05:20:08;1.35;;;0.30;;
31262;SDS011;17892;52.080;9.006;2023-02-28T05:22:38;0.73;;;0.30;;
31262;SDS011;17892;52.080;9.006;2023-02-28T05:25:05;0.95;;;0.38;;
31262;SDS011;17892;52.080;9.006;2023-02-28T05:27:31;0.75;;;0.30;;
31262;SDS011;17892;52.080;9.006;2023-02-28T05:29:58;0.98;;;0.30;;
31262;SDS011;17892;52.080;9.006;2023-02-28T05:32:24;0.85;;;0.25;;
31262;SDS011;17892;52.080;9.006;2023-02-28T05:34:50;2.05;;;0.47;;
31262;SDS011;17892;52.080;9.006;2023-02-28T05:37:15;0.47;;;0.20;;
31262;SDS011;17892;52.080;9.006;2023-02-28T05:39:41;1.05;;;0.47;;
31262;SDS011;17892;52.080;9.006;2023-02-28T05:42:07;1.45;;;0.50;;
31262;SDS011;17892;52.080;9.006;2023-02-28T05:44:34;2.58;;;0.85;;
31262;SDS011;17892;52.080;9.006;2023-02-28T05:47:00;0.70;;;0.30;;
31262;SDS011;17892;52.080;9.006;2023-02-28T05:49:26;1.23;;;0.52;;
31262;SDS011;17892;52.080;9.006;2023-02-28T05:51:51;0.63;;;0.35;;
31262;SDS011;17892;52.080;9.006;2023-02-28T05:54:17;0.52;;;0.30;;
31262;SDS011;17892;52.080;9.006;2023-02-28T05:56:43;0.98;;;0.22;;
31262;SDS011;17892;52.080;9.006;2023-02-28T05:59:12;1.10;;;0.30;;
31262;SDS011;17892;52.080;9.006;2023-02-28T06:01:39;0.47;;;0.17;;
31262;SDS011;17892;52.080;9.006;2023-02-28T06:04:08;0.52;;;0.22;;
31262;SDS011;17892;52.080;9.006;2023-02-28T06:06:35;1.35;;;0.38;;
31262;SDS011;17892;52.080;9.006;2023-02-28T06:09:02;0.43;;;0.20;;
31262;SDS011;17892;52.080;9.006;2023-02-28T06:11:29;1.02;;;0.25;;
31262;SDS011;17892;52.080;9.006;2023-02-28T06:13:58;0.75;;;0.30;;
31262;SDS011;17892;52.080;9.006;2023-02-28T06:16:26;1.02;;;0.40;;
31262;SDS011;17892;52.080;9.006;2023-02-28T06:18:53;0.60;;;0.30;;
31262;SDS011;17892;52.080;9.006;2023-02-28T06:21:21;1.13;;;0.50;;
31262;SDS011;17892;52.080;9.006;2023-02-28T06:23:47;1.67;;;0.30;;
31262;SDS011;17892;52.080;9.006;2023-02-28T06:26:13;0.90;;;0.50;;
31262;SDS011;17892;52.080;9.006;2023-02-28T06:28:39;0.93;;;0.20;;
31262;SDS011;17892;52.080;9.006;2023-02-28T06:31:08;0.50;;;0.30;;
31262;SDS011;17892;52.080;9.006;2023-02-28T06:33:37;1.08;;;0.40;;
31262;SDS011;17892;52.080;9.006;2023-02-28T06:36:04;1.13;;;0.40;;
31262;SDS011;17892;52.080;9.006;2023-02-28T06:38:31;1.08;;;0.30;;
31262;SDS011;17892;52.080;9.006;2023-02-28T06:40:58;0.35;;;0.17;;
31262;SDS011;17892;52.080;9.006;2023-02-28T06:43:27;0.73;;;0.35;;
31262;SDS011;17892;52.080;9.006;2023-02-28T06:45:55;0.43;;;0.20;;
31262;SDS011;17892;52.080;9.006;2023-02-28T06:48:23;1.10;;;0.35;;
31262;SDS011;17892;52.080;9.006;2023-02-28T06:50:51;0.88;;;0.32;;
31262;SDS011;17892;52.080;9.006;2023-02-28T06:53:16;0.70;;;0.28;;
31262;SDS011;17892;52.080;9.006;2023-02-28T06:55:42;1.17;;;0.30;;
31262;SDS011;17892;52.080;9.006;2023-02-28T06:58:08;0.73;;;0.20;;
31262;SDS011;17892;52.080;9.006;2023-02-28T07:00:43;1.42;;;0.60;;
31262;SDS011;17892;52.080;9.006;2023-02-28T07:03:10;0.98;;;0.32;;
31262;SDS011;17892;52.080;9.006;2023-02-28T07:05:38;0.98;;;0.40;;
31262;SDS011;17892;52.080;9.006;2023-02-28T07:08:05;0.70;;;0.38;;
31262;SDS011;17892;52.080;9.006;2023-02-28T07:10:31;1.42;;;0.55;;
31262;SDS011;17892;52.080;9.006;2023-02-28T07:12:58;1.55;;;0.50;;
31262;SDS011;17892;52.080;9.006;2023-02-28T07:15:25;2.47;;;0.88;;
31262;SDS011;17892;52.080;9.006;2023-02-28T07:17:51;3.38;;;1.52;;
31262;SDS011;17892;52.080;9.006;2023-02-28T07:20:17;2.80;;;1.00;;
31262;SDS011;17892;52.080;9.006;2023-02-28T07:22:42;1.92;;;0.65;;
31262;SDS011;17892;52.080;9.006;2023-02-28T07:25:08;2.35;;;0.60;;
31262;SDS011;17892;52.080;9.006;2023-02-28T07:27:34;2.58;;;0.80;;
31262;SDS011;17892;52.080;9.006;2023-02-28T07:30:00;2.22;;;0.85;;
31262;SDS011;17892;52.080;9.006;2023-02-28T07:32:26;1.65;;;0.50;;
31262;SDS011;17892;52.080;9.006;2023-02-28T07:34:53;0.90;;;0.43;;
31262;SDS011;17892;52.080;9.006;2023-02-28T07:37:19;1.35;;;0.63;;
31262;SDS011;17892;52.080;9.006;2023-02-28T07:39:45;2.00;;;0.70;;
31262;SDS011;17892;52.080;9.006;2023-02-28T07:42:11;2.00;;;0.60;;
31262;SDS011;17892;52.080;9.006;2023-02-28T07:44:40;2.22;;;0.70;;
31262;SDS011;17892;52.080;9.006;2023-02-28T07:47:08;1.52;;;0.60;;
31262;SDS011;17892;52.080;9.006;2023-02-28T07:52:05;2.17;;;0.70;;
31262;SDS011;17892;52.080;9.006;2023-02-28T07:54:32;1.55;;;0.50;;
31262;SDS011;17892;52.080;9.006;2023-02-28T07:56:59;1.48;;;0.52;;
31262;SDS011;17892;52.080;9.006;2023-02-28T07:59:24;1.60;;;0.70;;
31262;SDS011;17892;52.080;9.006;2023-02-28T08:01:50;2.08;;;1.27;;
31262;SDS011;17892;52.080;9.006;2023-02-28T08:04:17;2.22;;;0.60;;
31262;SDS011;17892;52.080;9.006;2023-02-28T08:06:43;2.08;;;0.80;;
31262;SDS011;17892;52.080;9.006;2023-02-28T08:09:09;1.38;;;0.60;;
31262;SDS011;17892;52.080;9.006;2023-02-28T08:11:35;1.48;;;0.60;;
31262;SDS011;17892;52.080;9.006;2023-02-28T08:14:01;1.67;;;0.65;;
31262;SDS011;17892;52.080;9.006;2023-02-28T08:16:27;1.30;;;0.55;;
31262;SDS011;17892;52.080;9.006;2023-02-28T08:18:53;1.88;;;0.60;;
31262;SDS011;17892;52.080;9.006;2023-02-28T08:21:19;1.30;;;0.52;;
31262;SDS011;17892;52.080;9.006;2023-02-28T08:23:46;2.65;;;0.77;;
31262;SDS011;17892;52.080;9.006;2023-02-28T08:26:13;1.85;;;0.60;;
31262;SDS011;17892;52.080;9.006;2023-02-28T08:28:40;1.63;;;0.57;;
31262;SDS011;17892;52.080;9.006;2023-02-28T08:31:07;2.75;;;0.85;;
31262;SDS011;17892;52.080;9.006;2023-02-28T08:33:34;2.97;;;1.10;;
31262;SDS011;17892;52.080;9.006;2023-02-28T08:36:01;2.58;;;1.23;;
31262;SDS011;17892;52.080;9.006;2023-02-28T08:38:27;3.97;;;0.70;;
31262;SDS011;17892;52.080;9.006;2023-02-28T08:40:56;1.17;;;0.50;;
31262;SDS011;17892;52.080;9.006;2023-02-28T08:43:25;2.13;;;0.70;;
31262;SDS011;17892;52.080;9.006;2023-02-28T08:45:51;2.05;;;0.82;;
31262;SDS011;17892;52.080;9.006;2023-02-28T08:48:18;1.85;;;0.70;;
31262;SDS011;17892;52.080;9.006;2023-02-28T08:50:43;1.52;;;0.60;;
31262;SDS011;17892;52.080;9.006;2023-02-28T08:53:09;2.38;;;0.70;;
31262;SDS011;17892;52.080;9.006;2023-02-28T08:55:35;2.15;;;0.70;;
31262;SDS011;17892;52.080;9.006;2023-02-28T08:58:01;2.05;;;0.63;;
31262;SDS011;17892;52.080;9.006;2023-02-28T09:00:26;3.00;;;1.00;;
31262;SDS011;17892;52.080;9.006;2023-02-28T09:02:53;1.98;;;0.90;;
31262;SDS011;17892;52.080;9.006;2023-02-28T09:05:19;2.45;;;1.00;;
31262;SDS011;17892;52.080;9.006;2023-02-28T09:07:45;2.63;;;0.90;;
31262;SDS011;17892;52.080;9.006;2023-02-28T09:10:10;2.05;;;0.80;;
31262;SDS011;17892;52.080;9.006;2023-02-28T09:12:36;2.10;;;1.08;;
31262;SDS011;17892;52.080;9.006;2023-02-28T09:15:02;3.55;;;1.20;;
31262;SDS011;17892;52.080;9.006;2023-02-28T09:17:28;2.05;;;0.90;;
31262;SDS011;17892;52.080;9.006;2023-02-28T09:19:54;2.35;;;1.13;;
31262;SDS011;17892;52.080;9.006;2023-02-28T09:22:20;2.50;;;0.85;;
31262;SDS011;17892;52.080;9.006;2023-02-28T09:24:46;2.90;;;1.02;;
31262;SDS011;17892;52.080;9.006;2023-02-28T09:27:11;2.08;;;0.80;;
31262;SDS011;17892;52.080;9.006;2023-02-28T09:29:37;2.15;;;0.70;;
31262;SDS011;17892;52.080;9.006;2023-02-28T09:32:03;1.85;;;0.70;;
31262;SDS011;17892;52.080;9.006;2023-02-28T09:34:30;2.13;;;1.00;;
31262;SDS011;17892;52.080;9.006;2023-02-28T09:36:56;2.40;;;1.00;;
31262;SDS011;17892;52.080;9.006;2023-02-28T09:39:22;2.20;;;0.90;;
31262;SDS011;17892;52.080;9.006;2023-02-28T09:41:50;2.80;;;0.88;;
31262;SDS011;17892;52.080;9.006;2023-02-28T09:44:20;2.08;;;0.85;;
31262;SDS011;17892;52.080;9.006;2023-02-28T09:47:36;3.10;;;1.02;;
31262;SDS011;17892;52.080;9.006;2023-02-28T09:49:58;2.60;;;0.95;;
31262;SDS011;17892;52.080;9.006;2023-02-28T09:52:36;3.42;;;0.73;;
31262;SDS011;17892;52.080;9.006;2023-02-28T09:55:18;2.80;;;1.00;;
31262;SDS011;17892;52.080;9.006;2023-02-28T09:57:56;2.35;;;1.00;;
31262;SDS011;17892;52.080;9.006;2023-02-28T10:00:28;2.58;;;0.80;;
31262;SDS011;17892;52.080;9.006;2023-02-28T10:06:04;2.13;;;0.65;;
31262;SDS011;17892;52.080;9.006;2023-02-28T10:09:07;3.42;;;1.15;;
31262;SDS011;17892;52.080;9.006;2023-02-28T10:11:39;1.95;;;0.82;;
31262;SDS011;17892;52.080;9.006;2023-02-28T10:14:12;2.05;;;0.90;;
31262;SDS011;17892;52.080;9.006;2023-02-28T10:16:43;2.00;;;0.80;;
31262;SDS011;17892;52.080;9.006;2023-02-28T10:22:23;3.80;;;1.13;;
31262;SDS011;17892;52.080;9.006;2023-02-28T10:25:16;2.47;;;1.05;;
31262;SDS011;17892;52.080;9.006;2023-02-28T10:27:49;2.80;;;1.17;;
31262;SDS011;17892;52.080;9.006;2023-02-28T10:30:19;4.80;;;1.15;;
31262;SDS011;17892;52.080;9.006;2023-02-28T10:32:47;2.60;;;0.90;;
31262;SDS011;17892;52.080;9.006;2023-02-28T10:35:19;2.88;;;0.90;;
31262;SDS011;17892;52.080;9.006;2023-02-28T10:37:49;2.15;;;1.00;;
31262;SDS011;17892;52.080;9.006;2023-02-28T10:43:16;2.35;;;0.90;;
31262;SDS011;17892;52.080;9.006;2023-02-28T10:45:52;3.72;;;0.95;;
31262;SDS011;17892;52.080;9.006;2023-02-28T10:49:03;3.30;;;1.00;;
31262;SDS011;17892;52.080;9.006;2023-02-28T10:51:38;2.67;;;1.10;;
31262;SDS011;17892;52.080;9.006;2023-02-28T10:54:06;2.55;;;1.00;;
31262;SDS011;17892;52.080;9.006;2023-02-28T11:00:17;3.53;;;1.35;;
31262;SDS011;17892;52.080;9.006;2023-02-28T11:02:46;4.07;;;1.42;;
31262;SDS011;17892;52.080;9.006;2023-02-28T11:08:06;2.55;;;1.00;;
31262;SDS011;17892;52.080;9.006;2023-02-28T11:10:43;3.20;;;1.30;;
31262;SDS011;17892;52.080;9.006;2023-02-28T11:13:24;3.00;;;1.30;;
31262;SDS011;17892;52.080;9.006;2023-02-28T11:15:57;3.15;;;1.25;;
31262;SDS011;17892;52.080;9.006;2023-02-28T11:21:09;3.50;;;1.25;;
31262;SDS011;17892;52.080;9.006;2023-02-28T11:23:43;4.05;;;1.10;;
31262;SDS011;17892;52.080;9.006;2023-02-28T11:26:09;3.38;;;1.10;;
31262;SDS011;17892;52.080;9.006;2023-02-28T11:28:37;2.83;;;1.02;;
31262;SDS011;17892;52.080;9.006;2023-02-28T11:31:14;4.05;;;1.10;;
31262;SDS011;17892;52.080;9.006;2023-02-28T11:38:52;2.53;;;1.08;;
31262;SDS011;17892;52.080;9.006;2023-02-28T11:45:00;2.53;;;1.10;;
31262;SDS011;17892;52.080;9.006;2023-02-28T11:51:03;2.63;;;1.20;;
31262;SDS011;17892;52.080;9.006;2023-02-28T11:53:52;2.20;;;0.95;;
31262;SDS011;17892;52.080;9.006;2023-02-28T11:56:41;2.88;;;0.98;;
31262;SDS011;17892;52.080;9.006;2023-02-28T12:05:20;2.13;;;0.90;;
31262;SDS011;17892;52.080;9.006;2023-02-28T12:16:36;3.33;;;1.40;;
31262;SDS011;17892;52.080;9.006;2023-02-28T12:19:32;3.35;;;1.30;;
31262;SDS011;17892;52.080;9.006;2023-02-28T12:30:34;5.40;;;1.10;;
31262;SDS011;17892;52.080;9.006;2023-02-28T12:33:06;2.47;;;1.15;;
31262;SDS011;17892;52.080;9.006;2023-02-28T12:35:37;4.03;;;1.50;;
31262;SDS011;17892;52.080;9.006;2023-02-28T12:38:14;3.75;;;1.50;;
31262;SDS011;17892;52.080;9.006;2023-02-28T12:43:20;2.88;;;1.30;;
31262;SDS011;17892;52.080;9.006;2023-02-28T12:45:53;3.63;;;1.13;;
31262;SDS011;17892;52.080;9.006;2023-02-28T12:48:39;3.35;;;1.42;;
31262;SDS011;17892;52.080;9.006;2023-02-28T12:51:11;3.60;;;1.30;;
31262;SDS011;17892;52.080;9.006;2023-02-28T12:53:50;3.00;;;1.13;;
31262;SDS011;17892;52.080;9.006;2023-02-28T13:08:21;4.72;;;1.70;;
31262;SDS011;17892;52.080;9.006;2023-02-28T13:11:22;3.00;;;1.50;;
31262;SDS011;17892;52.080;9.006;2023-02-28T13:13:57;4.07;;;1.50;;
31262;SDS011;17892;52.080;9.006;2023-02-28T13:16:25;2.85;;;1.38;;
31262;SDS011;17892;52.080;9.006;2023-02-28T13:18:51;4.32;;;1.80;;
31262;SDS011;17892;52.080;9.006;2023-02-28T13:21:24;6.13;;;2.00;;
31262;SDS011;17892;52.080;9.006;2023-02-28T13:39:51;4.03;;;1.50;;
31262;SDS011;17892;52.080;9.006;2023-02-28T13:48:14;3.08;;;1.23;;
31262;SDS011;17892;52.080;9.006;2023-02-28T13:50:31;3.45;;;1.38;;
31262;SDS011;17892;52.080;9.006;2023-02-28T14:01:11;3.78;;;1.70;;
31262;SDS011;17892;52.080;9.006;2023-02-28T14:07:03;3.95;;;1.40;;
31262;SDS011;17892;52.080;9.006;2023-02-28T14:09:34;4.28;;;1.67;;
31262;SDS011;17892;52.080;9.006;2023-02-28T14:27:00;4.53;;;1.80;;
31262;SDS011;17892;52.080;9.006;2023-02-28T14:37:51;3.90;;;1.90;;
31262;SDS011;17892;52.080;9.006;2023-02-28T14:40:29;4.60;;;2.20;;
31262;SDS011;17892;52.080;9.006;2023-02-28T14:43:02;4.00;;;1.55;;
31262;SDS011;17892;52.080;9.006;2023-02-28T14:45:30;4.43;;;1.83;;
31262;SDS011;17892;52.080;9.006;2023-02-28T14:47:59;4.43;;;1.80;;
31262;SDS011;17892;52.080;9.006;2023-02-28T14:50:32;6.00;;;1.88;;
31262;SDS011;17892;52.080;9.006;2023-02-28T14:53:01;3.47;;;1.98;;
31262;SDS011;17892;52.080;9.006;2023-02-28T14:55:28;4.47;;;2.00;;
31262;SDS011;17892;52.080;9.006;2023-02-28T14:57:58;4.13;;;1.92;;
31262;SDS011;17892;52.080;9.006;2023-02-28T15:00:30;4.25;;;1.92;;
31262;SDS011;17892;52.080;9.006;2023-02-28T15:02:59;3.20;;;1.80;;
31262;SDS011;17892;52.080;9.006;2023-02-28T15:05:36;6.22;;;2.42;;
31262;SDS011;17892;52.080;9.006;2023-02-28T15:10:38;3.78;;;2.13;;
31262;SDS011;17892;52.080;9.006;2023-02-28T15:13:14;4.55;;;1.85;;
31262;SDS011;17892;52.080;9.006;2023-02-28T15:15:56;2.70;;;1.33;;
31262;SDS011;17892;52.080;9.006;2023-02-28T15:18:37;3.20;;;1.80;;
31262;SDS011;17892;52.080;9.006;2023-02-28T15:21:41;3.42;;;1.42;;
31262;SDS011;17892;52.080;9.006;2023-02-28T15:24:17;3.03;;;1.50;;
31262;SDS011;17892;52.080;9.006;2023-02-28T15:26:53;2.58;;;1.20;;
31262;SDS011;17892;52.080;9.006;2023-02-28T15:29:23;3.35;;;1.65;;
31262;SDS011;17892;52.080;9.006;2023-02-28T15:31:57;2.88;;;1.20;;
31262;SDS011;17892;52.080;9.006;2023-02-28T15:37:02;3.30;;;1.60;;
31262;SDS011;17892;52.080;9.006;2023-02-28T15:39:50;3.55;;;1.70;;
31262;SDS011;17892;52.080;9.006;2023-02-28T15:42:20;2.97;;;1.50;;
31262;SDS011;17892;52.080;9.006;2023-02-28T15:44:52;3.72;;;1.70;;
31262;SDS011;17892;52.080;9.006;2023-02-28T15:47:22;3.72;;;1.60;;
31262;SDS011;17892;52.080;9.006;2023-02-28T15:49:54;3.50;;;1.50;;
31262;SDS011;17892;52.080;9.006;2023-02-28T15:55:19;3.65;;;1.40;;
31262;SDS011;17892;52.080;9.006;2023-02-28T15:57:50;4.05;;;1.70;;
31262;SDS011;17892;52.080;9.006;2023-02-28T16:00:20;2.58;;;1.30;;
31262;SDS011;17892;52.080;9.006;2023-02-28T16:02:48;3.55;;;1.75;;
31262;SDS011;17892;52.080;9.006;2023-02-28T16:05:50;3.28;;;1.38;;
31262;SDS011;17892;52.080;9.006;2023-02-28T16:08:11;3.30;;;1.30;;
31262;SDS011;17892;52.080;9.006;2023-02-28T16:10:40;2.78;;;1.20;;
31262;SDS011;17892;52.080;9.006;2023-02-28T16:13:06;3.45;;;1.50;;
31262;SDS011;17892;52.080;9.006;2023-02-28T16:15:37;2.20;;;1.17;;
31262;SDS011;17892;52.080;9.006;2023-02-28T16:18:07;2.80;;;1.40;;
31262;SDS011;17892;52.080;9.006;2023-02-28T16:20:36;3.22;;;1.67;;
31262;SDS011;17892;52.080;9.006;2023-02-28T16:23:02;4.40;;;1.27;;
31262;SDS011;17892;52.080;9.006;2023-02-28T16:25:40;3.05;;;1.58;;
31262;SDS011;17892;52.080;9.006;2023-02-28T16:28:12;3.65;;;1.40;;
31262;SDS011;17892;52.080;9.006;2023-02-28T16:30:58;3.97;;;1.80;;
31262;SDS011;17892;52.080;9.006;2023-02-28T16:33:28;3.42;;;1.15;;
31262;SDS011;17892;52.080;9.006;2023-02-28T16:35:57;3.40;;;1.80;;
31262;SDS011;17892;52.080;9.006;2023-02-28T16:38:24;3.28;;;1.58;;
31262;SDS011;17892;52.080;9.006;2023-02-28T16:40:50;2.83;;;1.23;;
31262;SDS011;17892;52.080;9.006;2023-02-28T16:43:18;3.25;;;1.40;;
31262;SDS011;17892;52.080;9.006;2023-02-28T16:45:48;3.10;;;1.30;;
31262;SDS011;17892;52.080;9.006;2023-02-28T16:48:21;3.72;;;1.48;;
31262;SDS011;17892;52.080;9.006;2023-02-28T16:50:47;3.05;;;1.30;;
31262;SDS011;17892;52.080;9.006;2023-02-28T16:53:13;3.30;;;1.58;;
31262;SDS011;17892;52.080;9.006;2023-02-28T16:55:39;5.00;;;1.92;;
31262;SDS011;17892;52.080;9.006;2023-02-28T16:58:05;4.10;;;1.50;;
31262;SDS011;17892;52.080;9.006;2023-02-28T17:00:31;3.03;;;1.50;;
31262;SDS011;17892;52.080;9.006;2023-02-28T17:02:58;4.00;;;1.67;;
31262;SDS011;17892;52.080;9.006;2023-02-28T17:05:28;3.28;;;1.60;;
31262;SDS011;17892;52.080;9.006;2023-02-28T17:08:00;3.55;;;1.33;;
31262;SDS011;17892;52.080;9.006;2023-02-28T17:10:25;2.90;;;1.50;;
31262;SDS011;17892;52.080;9.006;2023-02-28T17:12:52;2.72;;;1.35;;
31262;SDS011;17892;52.080;9.006;2023-02-28T17:15:18;2.90;;;1.48;;
31262;SDS011;17892;52.080;9.006;2023-02-28T17:17:45;3.35;;;1.38;;
31262;SDS011;17892;52.080;9.006;2023-02-28T17:20:20;4.10;;;1.70;;
31262;SDS011;17892;52.080;9.006;2023-02-28T17:22:47;4.22;;;1.65;;
31262;SDS011;17892;52.080;9.006;2023-02-28T17:25:14;2.33;;;1.25;;
31262;SDS011;17892;52.080;9.006;2023-02-28T17:27:40;2.88;;;1.50;;
31262;SDS011;17892;52.080;9.006;2023-02-28T17:30:25;3.60;;;1.67;;
31262;SDS011;17892;52.080;9.006;2023-02-28T17:32:56;5.15;;;1.98;;
31262;SDS011;17892;52.080;9.006;2023-02-28T17:35:22;3.83;;;1.23;;
31262;SDS011;17892;52.080;9.006;2023-02-28T17:37:48;3.60;;;1.60;;
31262;SDS011;17892;52.080;9.006;2023-02-28T17:40:19;3.20;;;1.17;;
31262;SDS011;17892;52.080;9.006;2023-02-28T17:42:47;3.55;;;1.50;;
31262;SDS011;17892;52.080;9.006;2023-02-28T17:45:13;4.43;;;1.63;;
31262;SDS011;17892;52.080;9.006;2023-02-28T17:47:40;3.13;;;1.52;;
31262;SDS011;17892;52.080;9.006;2023-02-28T17:50:16;2.45;;;1.35;;
31262;SDS011;17892;52.080;9.006;2023-02-28T17:52:46;3.35;;;1.60;;
31262;SDS011;17892;52.080;9.006;2023-02-28T17:55:12;3.42;;;1.73;;
31262;SDS011;17892;52.080;9.006;2023-02-28T17:57:38;3.67;;;1.40;;
31262;SDS011;17892;52.080;9.006;2023-02-28T18:00:06;3.40;;;1.60;;
31262;SDS011;17892;52.080;9.006;2023-02-28T18:02:34;3.72;;;1.23;;